createdAt,value
2018-10-05T00:01:00.626Z,6.02
2018-10-05T00:03:30.740Z,5.99
2018-10-05T00:06:00.416Z,6.02
2018-10-05T00:08:30.811Z,6.04
2018-10-05T00:11:00.746Z,6.03
2018-10-05T00:13:30.484Z,5.99
2018-10-05T00:16:00.713Z,6.01
2018-10-05T00:18:30.423Z,6.04
2018-10-05T00:21:00.204Z,6.01
2018-10-05T00:23:29.917Z,6.00
2018-10-05T00:25:59.757Z,5.99
2018-10-05T00:28:30.492Z,6.02
2018-10-05T00:31:00.152Z,5.96
2018-10-05T00:33:30.325Z,5.95
2018-10-05T00:36:00.122Z,5.94
2018-10-05T00:38:29.829Z,5.91
2018-10-05T00:41:01.010Z,5.85
2018-10-05T00:43:31.839Z,5.86
2018-10-05T00:46:01.921Z,5.88
2018-10-05T00:48:32.168Z,5.86
2018-10-05T00:51:01.939Z,5.87
2018-10-05T00:53:31.820Z,5.84
2018-10-05T00:56:01.465Z,5.85
2018-10-05T00:58:31.175Z,5.89
2018-10-05T01:01:01.450Z,5.89
2018-10-05T01:03:31.573Z,5.88
2018-10-05T01:06:01.363Z,5.82
2018-10-05T01:08:31.627Z,5.84
2018-10-05T01:11:01.583Z,5.83
2018-10-05T01:13:32.942Z,5.85
2018-10-05T01:16:03.399Z,5.85
2018-10-05T01:18:35.930Z,5.89
2018-10-05T01:21:05.597Z,5.91
2018-10-05T01:23:35.313Z,5.89
2018-10-05T01:26:05.062Z,5.80
2018-10-05T01:28:43.302Z,5.81
2018-10-05T01:31:12.995Z,5.84
2018-10-05T01:33:43.243Z,5.84
2018-10-05T01:36:13.189Z,5.81
2018-10-05T01:38:43.253Z,5.83
2018-10-05T01:41:13.130Z,5.88
2018-10-05T01:43:42.934Z,5.92
2018-10-05T01:46:12.709Z,5.95
2018-10-05T01:48:42.827Z,5.93
2018-10-05T01:51:12.579Z,5.96
2018-10-05T01:53:43.153Z,5.94
2018-10-05T01:56:14.332Z,5.94
2018-10-05T01:58:43.946Z,6.02
2018-10-05T02:01:14.756Z,5.96
2018-10-05T02:03:44.701Z,5.93
2018-10-05T02:06:15.341Z,5.82
2018-10-05T02:08:44.992Z,5.73
2018-10-05T02:11:14.813Z,5.61
2018-10-05T02:13:44.452Z,5.63
2018-10-05T02:16:14.588Z,5.58
2018-10-05T02:18:44.350Z,5.52
2018-10-05T02:21:14.296Z,5.55
2018-10-05T02:23:43.992Z,5.50
2018-10-05T02:26:13.725Z,5.48
2018-10-05T02:28:43.433Z,5.44
2018-10-05T02:31:13.545Z,5.41
2018-10-05T02:33:43.290Z,5.47
2018-10-05T02:36:13.649Z,5.40
2018-10-05T02:38:43.338Z,5.29
2018-10-05T02:41:13.030Z,5.28
2018-10-05T02:43:43.106Z,5.30
2018-10-05T02:46:13.781Z,5.32
2018-10-05T02:48:43.783Z,5.30
2018-10-05T02:51:13.462Z,5.35
2018-10-05T02:53:43.150Z,5.42
2018-10-05T02:56:13.245Z,5.52
2018-10-05T02:58:42.929Z,5.59
2018-10-05T03:01:23.437Z,5.71
2018-10-05T03:03:54.342Z,5.77
2018-10-05T03:06:24.246Z,5.85
2018-10-05T03:08:54.392Z,6.01
2018-10-05T03:11:24.095Z,6.29
2018-10-05T03:13:53.808Z,6.58
2018-10-05T03:16:24.419Z,6.90
2018-10-05T03:18:54.488Z,7.04
2018-10-05T03:21:24.346Z,7.14
2018-10-05T03:23:54.958Z,7.15
2018-10-05T03:26:26.124Z,7.19
2018-10-05T03:28:55.779Z,7.10
2018-10-05T03:31:25.443Z,7.12
2018-10-05T03:33:56.284Z,7.19
2018-10-05T03:36:26.210Z,7.30
2018-10-05T03:38:55.904Z,7.40
2018-10-05T03:41:25.615Z,7.43
2018-10-05T03:43:55.221Z,7.45
2018-10-05T03:46:24.925Z,7.47
2018-10-05T03:48:55.038Z,7.44
2018-10-05T03:51:24.881Z,7.45
2018-10-05T03:53:56.190Z,7.44
2018-10-05T03:56:25.934Z,7.48
2018-10-05T03:58:55.694Z,7.48
2018-10-05T04:01:25.517Z,7.51
2018-10-05T04:03:55.574Z,7.60
2018-10-05T04:06:26.044Z,7.65
2018-10-05T04:08:55.734Z,7.64
2018-10-05T04:11:25.624Z,7.62
2018-10-05T04:13:55.463Z,7.58
2018-10-05T04:16:26.767Z,7.47
2018-10-05T04:19:00.607Z,7.50
2018-10-05T04:21:31.198Z,7.57
2018-10-05T04:24:00.875Z,7.51
2018-10-05T04:26:30.603Z,7.36
2018-10-05T04:29:00.315Z,7.21
2018-10-05T04:31:30.594Z,7.04
2018-10-05T04:34:00.570Z,6.91
2018-10-05T04:36:30.469Z,6.78
2018-10-05T04:39:00.568Z,6.67
2018-10-05T04:41:30.225Z,6.61
2018-10-05T04:44:00.633Z,6.47
2018-10-05T04:46:30.309Z,6.40
2018-10-05T04:49:02.311Z,6.30
2018-10-05T04:51:31.932Z,6.25
2018-10-05T04:54:01.597Z,6.14
2018-10-05T04:56:31.248Z,6.14
2018-10-05T04:59:01.030Z,6.04
2018-10-05T05:01:52.789Z,6.03
2018-10-05T05:08:19.645Z,5.80
2018-10-05T05:10:51.908Z,5.75
2018-10-05T05:13:21.629Z,5.71
2018-10-05T05:15:52.410Z,5.63
2018-10-05T05:18:23.507Z,5.56
2018-10-05T05:20:53.194Z,5.46
2018-10-05T05:23:22.794Z,5.47
2018-10-05T05:25:53.054Z,5.43
2018-10-05T05:28:24.481Z,5.41
2018-10-05T05:30:54.143Z,5.31
2018-10-05T05:33:25.148Z,5.30
2018-10-05T05:35:55.633Z,5.35
2018-10-05T05:38:25.339Z,5.38
2018-10-05T05:40:55.347Z,5.48
2018-10-05T05:43:25.523Z,5.53
2018-10-05T05:45:55.961Z,5.66
2018-10-05T05:48:25.621Z,5.74
2018-10-05T05:50:55.664Z,5.82
2018-10-05T05:53:25.357Z,5.99
2018-10-05T05:55:55.017Z,6.25
2018-10-05T05:58:24.803Z,6.45
2018-10-05T06:00:54.518Z,6.55
2018-10-05T06:03:25.023Z,6.58
2018-10-05T06:05:55.130Z,6.56
2018-10-05T06:08:24.904Z,6.58
2018-10-05T06:10:54.686Z,6.58
2018-10-05T06:13:24.403Z,6.60
2018-10-05T06:15:54.789Z,6.55
2018-10-05T06:18:25.515Z,6.60
2018-10-05T06:20:55.542Z,6.65
2018-10-05T06:23:25.606Z,6.70
2018-10-05T06:25:55.569Z,6.79
2018-10-05T06:28:25.280Z,6.90
2018-10-05T06:30:56.641Z,7.01
2018-10-05T06:33:27.970Z,7.14
2018-10-05T06:35:58.354Z,7.25
2018-10-05T06:38:27.993Z,7.34
2018-10-05T06:40:58.505Z,7.42
2018-10-05T06:43:29.230Z,7.52
2018-10-05T06:45:59.216Z,7.63
2018-10-05T06:48:28.916Z,7.77
2018-10-05T06:50:58.623Z,7.92
2018-10-05T06:53:28.368Z,8.06
2018-10-05T06:55:58.514Z,8.23
2018-10-05T06:58:28.194Z,8.41
2018-10-05T07:00:57.884Z,8.56
2018-10-05T07:03:27.570Z,8.73
2018-10-05T07:05:57.203Z,8.89
2018-10-05T07:08:26.875Z,9.11
2018-10-05T07:10:57.982Z,9.26
2018-10-05T07:13:27.631Z,9.41
2018-10-05T07:15:57.392Z,9.63
2018-10-05T07:18:27.460Z,9.79
2018-10-05T07:20:57.149Z,9.99
2018-10-05T07:23:27.317Z,10.21
2018-10-05T07:25:57.214Z,10.39
2018-10-05T07:28:30.027Z,10.54
2018-10-05T07:31:04.451Z,10.68
2018-10-05T07:33:34.187Z,10.86
2018-10-05T07:36:07.286Z,11.00
2018-10-05T07:38:37.622Z,11.11
2018-10-05T07:41:07.275Z,11.26
2018-10-05T07:43:37.253Z,11.36
2018-10-05T07:46:07.826Z,11.36
2018-10-05T07:48:37.476Z,11.45
2018-10-05T07:51:07.986Z,11.47
2018-10-05T07:53:37.616Z,11.52
2018-10-05T08:02:02.623Z,11.78
2018-10-05T08:04:32.999Z,12.07
2018-10-05T08:07:03.329Z,12.18
2018-10-05T08:09:36.726Z,12.25
2018-10-05T08:12:07.721Z,12.37
2018-10-05T08:14:37.438Z,12.52
2018-10-05T08:17:07.661Z,12.76
2018-10-05T08:19:38.264Z,12.78
2018-10-05T08:22:08.169Z,12.88
2018-10-05T08:24:38.098Z,13.11
2018-10-05T08:27:09.650Z,13.13
2018-10-05T08:29:41.607Z,13.33
2018-10-05T08:32:11.618Z,13.35
2018-10-05T08:34:41.283Z,13.38
2018-10-05T08:37:11.484Z,13.42
2018-10-05T08:39:42.500Z,13.52
2018-10-05T08:42:12.121Z,13.72
2018-10-05T08:44:42.983Z,13.85
2018-10-05T08:47:12.637Z,13.95
2018-10-05T08:49:42.614Z,13.97
2018-10-05T08:52:13.351Z,14.11
2018-10-05T08:54:42.979Z,14.15
2018-10-05T08:57:12.655Z,14.30
2018-10-05T08:59:46.435Z,14.39
2018-10-05T09:03:01.554Z,14.53
2018-10-05T09:05:31.218Z,14.59
2018-10-05T09:08:00.941Z,14.65
2018-10-05T09:10:31.392Z,14.70
2018-10-05T09:13:01.750Z,14.75
2018-10-05T09:15:32.012Z,14.92
2018-10-05T09:18:03.526Z,14.95
2018-10-05T09:20:33.311Z,14.96
2018-10-05T09:23:03.067Z,15.13
2018-10-05T09:25:33.794Z,15.22
2018-10-05T09:28:05.638Z,15.48
2018-10-05T09:30:36.295Z,15.52
2018-10-05T09:33:06.069Z,15.46
2018-10-05T09:35:37.368Z,15.50
2018-10-05T09:38:10.547Z,15.61
2018-10-05T09:40:42.506Z,15.66
2018-10-05T09:43:14.729Z,15.69
2018-10-05T09:45:46.429Z,15.64
2018-10-05T09:48:19.080Z,15.69
2018-10-05T09:50:50.408Z,15.95
2018-10-05T09:53:20.175Z,16.12
2018-10-05T09:55:50.317Z,16.10
2018-10-05T09:58:21.090Z,16.23
2018-10-05T10:00:56.201Z,16.23
2018-10-05T10:03:33.333Z,16.32
2018-10-05T10:06:04.549Z,16.43
2018-10-05T10:08:37.710Z,16.42
2018-10-05T10:11:07.592Z,16.42
2018-10-05T10:13:38.024Z,16.52
2018-10-05T10:16:08.329Z,16.55
2018-10-05T10:18:38.805Z,16.68
2018-10-05T10:21:10.699Z,16.72
2018-10-05T10:23:43.222Z,16.81
2018-10-05T10:26:16.916Z,16.89
2018-10-05T10:28:48.848Z,16.92
2018-10-05T10:31:19.549Z,17.03
2018-10-05T10:33:50.826Z,17.00
2018-10-05T10:36:22.517Z,17.18
2018-10-05T10:38:54.247Z,17.08
2018-10-05T10:41:25.761Z,17.19
2018-10-05T10:43:59.680Z,17.36
2018-10-05T10:46:29.754Z,17.43
2018-10-05T10:49:00.398Z,17.52
2018-10-05T10:51:30.718Z,17.48
2018-10-05T10:54:00.930Z,17.62
2018-10-05T10:56:30.559Z,17.64
2018-10-05T10:59:00.330Z,17.78
2018-10-05T11:01:30.003Z,17.93
2018-10-05T11:03:59.690Z,17.77
2018-10-05T11:06:30.222Z,17.94
2018-10-05T11:09:00.381Z,18.07
2018-10-05T11:11:30.032Z,18.07
2018-10-05T11:14:00.470Z,18.21
2018-10-05T11:16:30.225Z,18.32
2018-10-05T11:18:59.888Z,18.20
2018-10-05T11:21:29.525Z,18.27
2018-10-05T11:23:59.481Z,18.42
2018-10-05T11:26:29.493Z,18.54
2018-10-05T11:28:59.313Z,18.64
2018-10-05T11:31:29.035Z,18.80
2018-10-05T11:33:59.274Z,18.83
2018-10-05T11:36:29.003Z,18.93
2018-10-05T11:39:02.038Z,18.80
2018-10-05T11:41:32.279Z,18.89
2018-10-05T11:44:04.501Z,18.89
2018-10-05T11:46:34.650Z,18.88
2018-10-05T11:49:07.951Z,18.87
2018-10-05T11:51:37.995Z,18.85
2018-10-05T11:54:07.667Z,18.96
2018-10-05T11:56:38.769Z,18.80
2018-10-05T11:59:08.413Z,18.75
2018-10-05T12:01:38.052Z,18.66
2018-10-05T12:04:08.577Z,18.71
2018-10-05T12:06:39.033Z,18.90
2018-10-05T12:09:09.557Z,18.93
2018-10-05T12:11:40.689Z,18.94
2018-10-05T12:14:10.396Z,18.96
2018-10-05T12:16:41.265Z,18.96
2018-10-05T12:19:10.951Z,18.90
2018-10-05T12:21:40.610Z,18.98
2018-10-05T12:24:12.414Z,19.05
2018-10-05T12:26:43.186Z,18.98
2018-10-05T12:29:12.772Z,18.93
2018-10-05T12:31:42.443Z,18.96
2018-10-05T12:34:12.362Z,18.93
2018-10-05T12:36:41.999Z,19.03
2018-10-05T12:39:11.654Z,18.97
2018-10-05T12:41:41.741Z,19.04
2018-10-05T12:44:11.375Z,19.01
2018-10-05T12:46:49.291Z,18.98
2018-10-05T12:49:19.778Z,19.05
2018-10-05T12:51:50.974Z,19.11
2018-10-05T12:54:22.877Z,19.11
2018-10-05T12:56:53.393Z,19.06
2018-10-05T12:59:24.685Z,19.06
2018-10-05T13:01:54.576Z,19.00
2018-10-05T13:04:25.187Z,18.97
2018-10-05T13:06:56.281Z,19.03
2018-10-05T13:09:27.975Z,19.08
2018-10-05T13:11:57.619Z,19.08
2018-10-05T13:14:27.523Z,19.12
2018-10-05T13:16:58.601Z,19.11
2018-10-05T13:19:29.204Z,19.12
2018-10-05T13:21:59.731Z,19.17
2018-10-05T13:24:29.370Z,19.23
2018-10-05T13:26:59.766Z,19.23
2018-10-05T13:29:32.246Z,19.22
2018-10-05T13:32:03.557Z,19.19
2018-10-05T13:34:37.416Z,19.15
2018-10-05T13:37:20.677Z,19.16
2018-10-05T13:39:53.410Z,19.17
2018-10-05T13:42:27.676Z,19.16
2018-10-05T13:44:58.942Z,19.17
2018-10-05T13:47:30.481Z,19.19
2018-10-05T13:50:05.245Z,19.22
2018-10-05T13:52:43.520Z,19.26
2018-10-05T13:55:13.169Z,19.31
2018-10-05T13:57:44.158Z,19.30
2018-10-05T14:00:23.101Z,19.32
2018-10-05T14:02:53.054Z,19.30
2018-10-05T14:05:23.326Z,19.31
2018-10-05T14:07:53.854Z,19.27
2018-10-05T14:10:25.374Z,19.26
2018-10-05T14:12:55.042Z,19.26
2018-10-05T14:15:25.187Z,19.27
2018-10-05T14:17:56.542Z,19.31
2018-10-05T14:20:27.428Z,19.32
2018-10-05T14:22:57.604Z,19.32
2018-10-05T14:25:28.638Z,19.30
2018-10-05T14:27:59.570Z,19.26
2018-10-05T14:30:31.576Z,19.26
2018-10-05T14:33:02.665Z,19.32
2018-10-05T14:35:35.459Z,19.23
2018-10-05T14:38:07.438Z,19.26
2018-10-05T14:40:40.174Z,19.24
2018-10-05T14:43:11.917Z,19.27
2018-10-05T14:45:46.590Z,19.22
2018-10-05T14:48:17.248Z,19.22
2018-10-05T14:50:49.091Z,19.24
2018-10-05T14:53:19.599Z,19.23
2018-10-05T14:55:59.656Z,19.20
2018-10-05T14:58:31.559Z,19.17
2018-10-05T15:01:03.708Z,19.13
2018-10-05T15:03:34.749Z,19.08
2018-10-05T15:06:04.888Z,18.96
2018-10-05T15:08:36.380Z,18.87
2018-10-05T15:11:09.436Z,18.79
2018-10-05T15:13:41.985Z,18.69
2018-10-05T15:16:15.825Z,18.59
2018-10-05T15:18:47.243Z,18.41
2018-10-05T15:21:20.242Z,18.28
2018-10-05T15:23:50.985Z,18.22
2018-10-05T15:26:22.460Z,18.11
2018-10-05T15:29:02.783Z,18.02
2018-10-05T15:35:10.966Z,17.74
2018-10-05T15:37:43.637Z,17.61
2018-10-05T15:40:15.674Z,17.45
2018-10-05T15:42:46.793Z,17.28
2018-10-05T15:45:19.697Z,17.19
2018-10-05T15:47:57.604Z,17.11
2018-10-05T15:50:28.692Z,17.00
2018-10-05T15:53:07.550Z,16.91
2018-10-05T15:55:39.625Z,16.77
2018-10-05T15:58:14.162Z,16.71
2018-10-05T16:00:49.671Z,16.60
2018-10-05T16:03:21.244Z,16.49
2018-10-05T16:05:52.558Z,16.43
2018-10-05T16:08:24.403Z,16.38
2018-10-05T16:10:54.813Z,16.35
2018-10-05T16:13:26.136Z,16.20
2018-10-05T16:15:57.511Z,16.11
2018-10-05T16:18:31.461Z,16.18
2018-10-05T16:21:03.620Z,16.12
2018-10-05T16:23:36.091Z,16.04
2018-10-05T16:26:06.157Z,15.93
2018-10-05T16:28:37.353Z,15.78
2018-10-05T16:31:10.291Z,15.59
2018-10-05T16:33:41.527Z,15.42
2018-10-05T16:36:11.684Z,15.22
2018-10-05T16:38:44.406Z,15.01
2018-10-05T16:41:15.440Z,14.81
2018-10-05T16:43:46.040Z,14.69
2018-10-05T16:46:18.360Z,14.49
2018-10-05T16:48:48.423Z,14.34
2018-10-05T16:51:19.540Z,14.16
2018-10-05T16:53:50.456Z,14.06
2018-10-05T16:56:21.596Z,14.09
2018-10-05T17:01:32.280Z,13.92
2018-10-05T17:04:03.051Z,13.81
2018-10-05T17:06:33.159Z,13.74
2018-10-05T17:09:08.056Z,13.64
2018-10-05T17:11:43.466Z,13.53
2018-10-05T17:14:13.914Z,13.36
2018-10-05T17:16:44.631Z,13.28
2018-10-05T17:19:16.377Z,13.17
2018-10-05T17:21:47.122Z,13.11
2018-10-05T17:24:18.686Z,12.94
2018-10-05T17:26:48.787Z,12.89
2018-10-05T17:29:19.269Z,12.85
2018-10-05T17:31:49.420Z,12.81
2018-10-05T17:34:21.424Z,12.87
2018-10-05T17:36:51.837Z,12.89
2018-10-05T17:39:28.333Z,12.95
2018-10-05T17:42:00.824Z,13.19
2018-10-05T17:44:31.740Z,13.38
2018-10-05T17:47:04.695Z,13.39
2018-10-05T17:49:36.638Z,13.52
2018-10-05T17:52:15.193Z,13.56
2018-10-05T17:54:47.413Z,13.62
2018-10-05T17:59:56.060Z,13.84
2018-10-05T18:02:26.779Z,13.87
2018-10-05T18:04:58.685Z,13.90
2018-10-05T18:07:33.675Z,13.82
2018-10-05T18:10:04.695Z,13.81
2018-10-05T18:12:37.021Z,13.75
2018-10-05T18:15:08.239Z,13.67
2018-10-05T18:17:42.476Z,13.77
2018-10-05T18:20:14.729Z,13.77
2018-10-05T18:22:50.409Z,13.72
2018-10-05T18:25:21.306Z,13.66
2018-10-05T18:27:51.705Z,13.74
2018-10-05T18:30:23.742Z,13.84
2018-10-05T18:32:57.374Z,13.85
2018-10-05T18:35:29.835Z,13.88
2018-10-05T18:38:02.469Z,13.92
2018-10-05T18:40:36.533Z,13.90
2018-10-05T18:43:09.342Z,13.90
2018-10-05T18:45:42.453Z,13.93
2018-10-05T18:48:16.506Z,13.94
2018-10-05T18:50:51.583Z,13.90
2018-10-05T18:53:27.126Z,13.91
2018-10-05T18:56:23.317Z,13.94
2018-10-05T18:58:58.052Z,13.86
2018-10-05T19:01:33.463Z,13.86
2018-10-05T19:04:05.766Z,13.81
2018-10-05T19:06:41.266Z,13.80
2018-10-05T19:09:15.137Z,13.84
2018-10-05T19:14:42.514Z,13.93
2018-10-05T19:17:17.423Z,13.96
2018-10-05T19:19:49.555Z,13.99
2018-10-05T19:22:24.747Z,13.96
2018-10-05T19:25:01.345Z,13.95
2018-10-05T19:27:35.906Z,13.88
2018-10-05T19:30:11.730Z,13.88
2018-10-05T19:32:45.027Z,13.87
2018-10-05T19:35:16.863Z,13.88
2018-10-05T19:37:49.208Z,13.81
2018-10-05T19:40:19.256Z,13.87
2018-10-05T19:42:50.553Z,13.80
2018-10-05T19:45:21.475Z,13.73
2018-10-05T19:47:54.572Z,13.74
2018-10-05T19:50:25.543Z,13.71
2018-10-05T19:53:00.343Z,13.70
2018-10-05T19:55:38.278Z,13.75
2018-10-05T19:58:10.145Z,13.78
2018-10-05T20:00:47.426Z,13.74
2018-10-05T20:03:20.429Z,13.78
2018-10-05T20:05:54.043Z,13.74
2018-10-05T20:08:28.283Z,13.67
2018-10-05T20:11:01.292Z,13.56
2018-10-05T20:13:36.345Z,13.58
2018-10-05T20:16:10.640Z,13.63
2018-10-05T20:19:01.393Z,13.63
2018-10-05T20:21:39.717Z,13.61
2018-10-05T20:24:13.771Z,13.55
2018-10-05T20:26:47.655Z,13.46
2018-10-05T20:29:19.104Z,13.36
2018-10-05T20:31:54.519Z,13.38
2018-10-05T20:37:10.402Z,13.32
2018-10-05T20:39:41.119Z,13.30
2018-10-05T20:42:17.880Z,13.28
2018-10-05T20:44:48.394Z,13.43
2018-10-05T20:47:18.679Z,13.37
2018-10-05T20:49:49.293Z,13.33
2018-10-05T20:52:20.274Z,13.36
2018-10-05T20:54:53.645Z,13.47
2018-10-05T20:57:23.659Z,13.41
2018-10-05T20:59:54.235Z,13.34
2018-10-05T21:02:23.966Z,13.35
2018-10-05T21:04:54.015Z,13.38
2018-10-05T21:07:27.328Z,13.32
2018-10-05T21:09:57.266Z,13.24
2018-10-05T21:12:27.813Z,13.28
2018-10-05T21:14:59.144Z,13.26
2018-10-05T21:17:28.815Z,13.25
2018-10-05T21:20:01.337Z,13.20
2018-10-05T21:22:32.639Z,13.24
2018-10-05T21:25:03.688Z,13.22
2018-10-05T21:27:33.391Z,13.21
2018-10-05T21:30:04.466Z,13.19
2018-10-05T21:32:34.604Z,13.15
2018-10-05T21:35:06.564Z,13.09
2018-10-05T21:37:36.229Z,13.00
2018-10-05T21:40:05.879Z,13.01
2018-10-05T21:42:35.538Z,13.01
2018-10-05T21:45:06.243Z,13.10
2018-10-05T21:47:37.025Z,13.02
2018-10-05T21:50:07.065Z,12.98
2018-10-05T21:52:36.769Z,12.95
2018-10-05T21:55:08.299Z,13.02
2018-10-05T21:57:38.670Z,13.08
2018-10-05T22:00:10.468Z,13.11
2018-10-05T22:02:41.356Z,13.06
2018-10-05T22:05:11.056Z,13.01
2018-10-05T22:07:41.518Z,13.11
2018-10-05T22:10:12.136Z,13.00
2018-10-05T22:12:42.398Z,12.91
2018-10-05T22:15:12.537Z,12.79
2018-10-05T22:17:43.607Z,12.70
2018-10-05T22:20:13.293Z,12.65
2018-10-05T22:22:44.690Z,12.66
2018-10-05T22:25:14.469Z,12.72
2018-10-05T22:27:44.901Z,12.69
2018-10-05T22:30:17.363Z,12.79
2018-10-05T22:32:50.293Z,12.75
2018-10-05T22:35:21.134Z,12.67
2018-10-05T22:37:52.891Z,12.71
2018-10-05T22:40:26.905Z,12.70
2018-10-05T22:42:57.657Z,12.67
2018-10-05T22:45:30.285Z,12.69
2018-10-05T22:48:06.684Z,12.85
2018-10-05T22:50:37.061Z,12.81
2018-10-05T22:53:06.726Z,12.88
2018-10-05T22:55:36.434Z,12.79
2018-10-05T22:58:06.428Z,12.73
2018-10-05T23:00:36.035Z,12.66
2018-10-05T23:03:05.672Z,12.71
2018-10-05T23:05:35.650Z,12.66
2018-10-05T23:08:06.501Z,12.67
2018-10-05T23:10:36.901Z,12.67
2018-10-05T23:13:09.513Z,12.68
2018-10-05T23:15:39.469Z,12.76
2018-10-05T23:18:09.846Z,12.78
2018-10-05T23:20:40.445Z,12.78
2018-10-05T23:23:10.840Z,12.82
2018-10-05T23:25:40.495Z,12.82
2018-10-05T23:28:11.632Z,12.77
2018-10-05T23:30:41.218Z,12.69
2018-10-05T23:33:11.157Z,12.62
2018-10-05T23:35:40.771Z,12.63
2018-10-05T23:38:10.448Z,12.59
2018-10-05T23:40:40.074Z,12.56
2018-10-05T23:43:09.706Z,12.49
2018-10-05T23:45:40.176Z,12.49
2018-10-05T23:48:11.689Z,12.39
2018-10-05T23:50:41.326Z,12.40
2018-10-05T23:53:11.800Z,12.34
2018-10-05T23:55:43.699Z,12.29
2018-10-05T23:58:13.409Z,12.28
